sensor_id;sensor_type;location;lat;lon;timestamp;P1;durP1;ratioP1;P2;durP2;ratioP2
1086;SDS011;532;49.436;11.100;2022-08-25T07:09:32;592.88;;;220.10;;
1086;SDS011;532;49.436;11.100;2022-08-25T13:19:42;447.53;;;176.00;;
1086;SDS011;532;49.436;11.100;2022-08-25T13:22:13;424.00;;;167.90;;
1086;SDS011;532;49.436;11.100;2022-08-25T13:24:43;386.33;;;159.65;;
1086;SDS011;532;49.436;11.100;2022-08-25T13:27:21;611.13;;;231.38;;
1086;SDS011;532;49.436;11.100;2022-08-25T13:29:52;670.58;;;253.35;;
1086;SDS011;532;49.436;11.100;2022-08-25T13:32:26;555.00;;;215.60;;
1086;SDS011;532;49.436;11.100;2022-08-25T13:35:22;550.58;;;215.20;;
1086;SDS011;532;49.436;11.100;2022-08-25T13:38:10;570.25;;;221.40;;
1086;SDS011;532;49.436;11.100;2022-08-25T13:56:00;124.43;;;92.20;;
1086;SDS011;532;49.436;11.100;2022-08-25T14:11:32;134.60;;;95.60;;
1086;SDS011;532;49.436;11.100;2022-08-25T14:14:04;147.25;;;99.70;;
1086;SDS011;532;49.436;11.100;2022-08-25T14:16:36;115.00;;;87.63;;
1086;SDS011;532;49.436;11.100;2022-08-25T14:24:31;148.68;;;100.72;;
1086;SDS011;532;49.436;11.100;2022-08-25T15:55:40;145.32;;;100.25;;
1086;SDS011;532;49.436;11.100;2022-08-25T16:08:04;216.50;;;120.32;;
1086;SDS011;532;49.436;11.100;2022-08-25T16:10:46;233.35;;;125.10;;
1086;SDS011;532;49.436;11.100;2022-08-25T16:13:15;202.53;;;117.27;;
1086;SDS011;532;49.436;11.100;2022-08-25T16:15:45;199.40;;;116.18;;
1086;SDS011;532;49.436;11.100;2022-08-25T16:18:19;44.35;;;40.78;;
1086;SDS011;532;49.436;11.100;2022-08-25T16:20:48;102.63;;;79.78;;
1086;SDS011;532;49.436;11.100;2022-08-25T16:23:17;146.07;;;99.60;;
1086;SDS011;532;49.436;11.100;2022-08-25T16:25:48;169.88;;;107.00;;
1086;SDS011;532;49.436;11.100;2022-08-25T16:28:18;151.37;;;101.97;;
1086;SDS011;532;49.436;11.100;2022-08-25T16:30:52;140.80;;;97.53;;
1086;SDS011;532;49.436;11.100;2022-08-25T16:33:40;137.57;;;95.60;;
1086;SDS011;532;49.436;11.100;2022-08-25T17:17:26;183.45;;;112.25;;
1086;SDS011;532;49.436;11.100;2022-08-25T17:23:36;217.00;;;120.93;;
1086;SDS011;532;49.436;11.100;2022-08-25T17:29:46;233.23;;;125.03;;
1086;SDS011;532;49.436;11.100;2022-08-25T17:32:34;221.82;;;122.57;;
1086;SDS011;532;49.436;11.100;2022-08-25T17:35:22;191.57;;;114.35;;
1086;SDS011;532;49.436;11.100;2022-08-25T17:38:11;154.68;;;103.00;;
1086;SDS011;532;49.436;11.100;2022-08-25T17:41:00;166.73;;;106.43;;
1086;SDS011;532;49.436;11.100;2022-08-25T17:43:52;147.70;;;100.77;;
1086;SDS011;532;49.436;11.100;2022-08-25T17:46:22;137.52;;;96.78;;
1086;SDS011;532;49.436;11.100;2022-08-25T17:48:53;217.55;;;120.70;;
1086;SDS011;532;49.436;11.100;2022-08-25T17:51:22;212.43;;;119.22;;
1086;SDS011;532;49.436;11.100;2022-08-25T17:53:51;202.57;;;117.05;;
1086;SDS011;532;49.436;11.100;2022-08-25T17:56:22;122.30;;;91.07;;
1086;SDS011;532;49.436;11.100;2022-08-25T17:59:16;89.53;;;77.28;;
1086;SDS011;532;49.436;11.100;2022-08-25T18:02:03;85.72;;;75.78;;
1086;SDS011;532;49.436;11.100;2022-08-25T18:04:52;94.47;;;78.80;;
1086;SDS011;532;49.436;11.100;2022-08-25T18:07:43;109.53;;;85.82;;
1086;SDS011;532;49.436;11.100;2022-08-25T18:10:34;109.20;;;86.07;;
1086;SDS011;532;49.436;11.100;2022-08-25T18:13:22;178.60;;;109.50;;
1086;SDS011;532;49.436;11.100;2022-08-25T18:16:14;179.05;;;110.43;;
1086;SDS011;532;49.436;11.100;2022-08-25T18:19:04;202.00;;;116.90;;
1086;SDS011;532;49.436;11.100;2022-08-25T18:21:55;204.18;;;116.15;;
1086;SDS011;532;49.436;11.100;2022-08-25T18:24:43;203.55;;;117.20;;
1086;SDS011;532;49.436;11.100;2022-08-25T18:27:37;131.73;;;94.03;;
1086;SDS011;532;49.436;11.100;2022-08-25T18:30:25;115.13;;;88.03;;
1086;SDS011;532;49.436;11.100;2022-08-25T18:33:39;118.10;;;89.50;;
1086;SDS011;532;49.436;11.100;2022-08-25T20:01:50;237.63;;;125.60;;
1086;SDS011;532;49.436;11.100;2022-08-25T20:07:15;220.30;;;120.63;;
1086;SDS011;532;49.436;11.100;2022-08-25T20:09:45;231.35;;;124.00;;
1086;SDS011;532;49.436;11.100;2022-08-25T20:12:16;256.65;;;130.10;;
1086;SDS011;532;49.436;11.100;2022-08-25T20:14:46;244.98;;;127.38;;
